sensor_id;sensor_type;location;lat;lon;timestamp;temperature;humidity
13721;DHT22;6932;51.438;5.470;2024-01-16T00:01:46;6.90;99.90
13721;DHT22;6932;51.438;5.470;2024-01-16T00:04:12;6.90;99.90
13721;DHT22;6932;51.438;5.470;2024-01-16T00:06:41;6.90;99.90
13721;DHT22;6932;51.438;5.470;2024-01-16T00:09:07;7.00;99.90
13721;DHT22;6932;51.438;5.470;2024-01-16T00:11:40;7.00;99.90
13721;DHT22;6932;51.438;5.470;2024-01-16T00:14:06;7.00;99.90
13721;DHT22;6932;51.438;5.470;2024-01-16T00:16:32;7.00;99.90
13721;DHT22;6932;51.438;5.470;2024-01-16T00:18:58;7.00;99.90
13721;DHT22;6932;51.438;5.470;2024-01-16T00:21:23;6.90;99.90
13721;DHT22;6932;51.438;5.470;2024-01-16T00:23:49;6.90;99.90
13721;DHT22;6932;51.438;5.470;2024-01-16T00:26:22;6.90;99.90
13721;DHT22;6932;51.438;5.470;2024-01-16T00:28:48;6.90;99.90
13721;DHT22;6932;51.438;5.470;2024-01-16T00:31:14;6.90;99.90
13721;DHT22;6932;51.438;5.470;2024-01-16T00:33:40;6.90;99.90
13721;DHT22;6932;51.438;5.470;2024-01-16T00:36:06;6.90;99.90
13721;DHT22;6932;51.438;5.470;2024-01-16T00:38:35;6.90;99.90
13721;DHT22;6932;51.438;5.470;2024-01-16T00:41:00;6.90;99.90
13721;DHT22;6932;51.438;5.470;2024-01-16T00:43:26;7.00;99.90
13721;DHT22;6932;51.438;5.470;2024-01-16T00:45:52;6.90;99.90
13721;DHT22;6932;51.438;5.470;2024-01-16T00:48:18;6.90;99.90
13721;DHT22;6932;51.438;5.470;2024-01-16T00:50:46;6.90;99.90
13721;DHT22;6932;51.438;5.470;2024-01-16T00:53:16;6.90;99.90
13721;DHT22;6932;51.438;5.470;2024-01-16T00:55:42;7.00;99.90
13721;DHT22;6932;51.438;5.470;2024-01-16T00:58:07;7.00;99.90
13721;DHT22;6932;51.438;5.470;2024-01-16T01:00:33;7.00;99.90
13721;DHT22;6932;51.438;5.470;2024-01-16T01:03:00;7.00;99.90
13721;DHT22;6932;51.438;5.470;2024-01-16T01:05:26;7.00;99.90
13721;DHT22;6932;51.438;5.470;2024-01-16T01:07:57;7.00;99.90
13721;DHT22;6932;51.438;5.470;2024-01-16T01:10:23;7.00;99.90
13721;DHT22;6932;51.438;5.470;2024-01-16T01:12:49;7.00;99.90
13721;DHT22;6932;51.438;5.470;2024-01-16T01:15:17;7.00;99.90
13721;DHT22;6932;51.438;5.470;2024-01-16T01:17:43;7.10;99.90
13721;DHT22;6932;51.438;5.470;2024-01-16T01:20:09;7.00;99.90
13721;DHT22;6932;51.438;5.470;2024-01-16T01:22:37;7.00;99.90
13721;DHT22;6932;51.438;5.470;2024-01-16T01:25:03;7.00;99.90
13721;DHT22;6932;51.438;5.470;2024-01-16T01:27:29;7.00;99.90
13721;DHT22;6932;51.438;5.470;2024-01-16T01:29:55;7.00;99.90
13721;DHT22;6932;51.438;5.470;2024-01-16T01:32:21;7.10;99.90
13721;DHT22;6932;51.438;5.470;2024-01-16T01:34:47;7.00;99.90
13721;DHT22;6932;51.438;5.470;2024-01-16T01:37:12;7.10;99.90
13721;DHT22;6932;51.438;5.470;2024-01-16T01:39:39;7.00;99.90
13721;DHT22;6932;51.438;5.470;2024-01-16T01:42:05;7.10;99.90
13721;DHT22;6932;51.438;5.470;2024-01-16T01:44:31;7.10;99.90
13721;DHT22;6932;51.438;5.470;2024-01-16T01:46:57;7.00;99.90
13721;DHT22;6932;51.438;5.470;2024-01-16T01:49:25;7.10;99.90
13721;DHT22;6932;51.438;5.470;2024-01-16T01:51:51;7.10;99.90
13721;DHT22;6932;51.438;5.470;2024-01-16T01:54:19;7.10;99.90
13721;DHT22;6932;51.438;5.470;2024-01-16T01:56:47;7.10;99.90
13721;DHT22;6932;51.438;5.470;2024-01-16T01:59:18;7.10;99.90
13721;DHT22;6932;51.438;5.470;2024-01-16T02:01:48;7.10;99.90
13721;DHT22;6932;51.438;5.470;2024-01-16T02:04:19;7.10;99.90
13721;DHT22;6932;51.438;5.470;2024-01-16T02:06:45;7.10;99.90
13721;DHT22;6932;51.438;5.470;2024-01-16T02:09:12;7.10;99.90
13721;DHT22;6932;51.438;5.470;2024-01-16T02:11:42;7.10;99.90
13721;DHT22;6932;51.438;5.470;2024-01-16T02:14:09;7.10;99.90
13721;DHT22;6932;51.438;5.470;2024-01-16T02:16:40;7.00;99.90
13721;DHT22;6932;51.438;5.470;2024-01-16T02:19:07;7.10;99.90
13721;DHT22;6932;51.438;5.470;2024-01-16T02:21:43;7.10;99.90
13721;DHT22;6932;51.438;5.470;2024-01-16T02:24:17;7.10;99.90
13721;DHT22;6932;51.438;5.470;2024-01-16T02:26:44;7.10;99.90
13721;DHT22;6932;51.438;5.470;2024-01-16T02:29:10;7.10;99.90
13721;DHT22;6932;51.438;5.470;2024-01-16T02:31:36;7.10;99.90
13721;DHT22;6932;51.438;5.470;2024-01-16T02:34:03;7.10;99.90
13721;DHT22;6932;51.438;5.470;2024-01-16T02:36:30;7.10;99.90
13721;DHT22;6932;51.438;5.470;2024-01-16T02:38:56;7.10;99.90
13721;DHT22;6932;51.438;5.470;2024-01-16T02:41:22;7.10;99.90
13721;DHT22;6932;51.438;5.470;2024-01-16T02:43:48;7.10;99.90
13721;DHT22;6932;51.438;5.470;2024-01-16T02:46:14;7.00;99.90
13721;DHT22;6932;51.438;5.470;2024-01-16T02:48:40;7.00;99.90
13721;DHT22;6932;51.438;5.470;2024-01-16T02:51:08;7.00;99.90
13721;DHT22;6932;51.438;5.470;2024-01-16T02:53:34;7.00;99.90
13721;DHT22;6932;51.438;5.470;2024-01-16T02:56:00;7.00;99.90
13721;DHT22;6932;51.438;5.470;2024-01-16T02:58:29;7.00;99.90
13721;DHT22;6932;51.438;5.470;2024-01-16T03:00:56;7.00;99.90
13721;DHT22;6932;51.438;5.470;2024-01-16T03:03:22;7.00;99.90
13721;DHT22;6932;51.438;5.470;2024-01-16T03:05:49;7.00;99.90
13721;DHT22;6932;51.438;5.470;2024-01-16T03:08:15;6.90;99.90
13721;DHT22;6932;51.438;5.470;2024-01-16T03:10:41;6.90;99.90
13721;DHT22;6932;51.438;5.470;2024-01-16T03:13:07;6.90;99.90
13721;DHT22;6932;51.438;5.470;2024-01-16T03:15:33;6.90;99.90
13721;DHT22;6932;51.438;5.470;2024-01-16T03:17:59;6.90;99.90
13721;DHT22;6932;51.438;5.470;2024-01-16T03:20:26;6.90;99.90
13721;DHT22;6932;51.438;5.470;2024-01-16T03:22:53;6.90;99.90
13721;DHT22;6932;51.438;5.470;2024-01-16T03:25:19;6.90;99.90
13721;DHT22;6932;51.438;5.470;2024-01-16T03:27:46;6.90;99.90
13721;DHT22;6932;51.438;5.470;2024-01-16T03:30:12;6.90;99.90
13721;DHT22;6932;51.438;5.470;2024-01-16T03:32:38;6.90;99.90
13721;DHT22;6932;51.438;5.470;2024-01-16T03:35:05;6.90;99.90
13721;DHT22;6932;51.438;5.470;2024-01-16T03:37:31;6.80;99.90
13721;DHT22;6932;51.438;5.470;2024-01-16T03:39:57;6.80;99.90
13721;DHT22;6932;51.438;5.470;2024-01-16T03:42:23;6.80;99.90
13721;DHT22;6932;51.438;5.470;2024-01-16T03:44:49;6.80;99.90
13721;DHT22;6932;51.438;5.470;2024-01-16T03:47:15;6.80;99.90
13721;DHT22;6932;51.438;5.470;2024-01-16T03:49:41;6.80;99.90
13721;DHT22;6932;51.438;5.470;2024-01-16T03:52:07;6.80;99.90
13721;DHT22;6932;51.438;5.470;2024-01-16T03:54:32;6.80;99.90
13721;DHT22;6932;51.438;5.470;2024-01-16T03:56:58;6.80;99.90
13721;DHT22;6932;51.438;5.470;2024-01-16T03:59:24;6.80;99.90
13721;DHT22;6932;51.438;5.470;2024-01-16T04:01:50;6.70;99.90
13721;DHT22;6932;51.438;5.470;2024-01-16T04:04:16;6.70;99.90
13721;DHT22;6932;51.438;5.470;2024-01-16T04:06:42;6.70;99.90
13721;DHT22;6932;51.438;5.470;2024-01-16T04:09:08;6.70;99.90
13721;DHT22;6932;51.438;5.470;2024-01-16T04:11:35;6.70;99.90
13721;DHT22;6932;51.438;5.470;2024-01-16T04:14:01;6.60;99.90
13721;DHT22;6932;51.438;5.470;2024-01-16T04:16:27;6.60;99.90
13721;DHT22;6932;51.438;5.470;2024-01-16T04:18:53;6.60;99.90
13721;DHT22;6932;51.438;5.470;2024-01-16T04:21:19;6.60;99.90
13721;DHT22;6932;51.438;5.470;2024-01-16T04:23:45;6.60;99.90
13721;DHT22;6932;51.438;5.470;2024-01-16T04:26:11;6.60;99.90
13721;DHT22;6932;51.438;5.470;2024-01-16T04:28:37;6.60;99.90
13721;DHT22;6932;51.438;5.470;2024-01-16T04:31:05;6.60;99.90
13721;DHT22;6932;51.438;5.470;2024-01-16T04:33:32;6.50;99.90
13721;DHT22;6932;51.438;5.470;2024-01-16T04:35:57;6.50;99.90
13721;DHT22;6932;51.438;5.470;2024-01-16T04:38:23;6.50;99.90
13721;DHT22;6932;51.438;5.470;2024-01-16T04:40:49;6.50;99.90
13721;DHT22;6932;51.438;5.470;2024-01-16T04:43:15;6.50;99.90
13721;DHT22;6932;51.438;5.470;2024-01-16T04:45:41;6.50;99.90
13721;DHT22;6932;51.438;5.470;2024-01-16T04:48:07;6.50;99.90
13721;DHT22;6932;51.438;5.470;2024-01-16T04:50:35;6.40;99.90
13721;DHT22;6932;51.438;5.470;2024-01-16T04:53:01;6.40;99.90
13721;DHT22;6932;51.438;5.470;2024-01-16T04:55:28;6.40;99.90
13721;DHT22;6932;51.438;5.470;2024-01-16T04:57:55;6.40;99.90
13721;DHT22;6932;51.438;5.470;2024-01-16T05:00:21;6.40;99.90
13721;DHT22;6932;51.438;5.470;2024-01-16T05:02:47;6.40;99.90
13721;DHT22;6932;51.438;5.470;2024-01-16T05:05:13;6.40;99.90
13721;DHT22;6932;51.438;5.470;2024-01-16T05:07:40;6.30;99.90
13721;DHT22;6932;51.438;5.470;2024-01-16T05:10:06;6.30;99.90
13721;DHT22;6932;51.438;5.470;2024-01-16T05:12:36;6.30;99.90
13721;DHT22;6932;51.438;5.470;2024-01-16T05:15:01;6.30;99.90
13721;DHT22;6932;51.438;5.470;2024-01-16T05:17:27;6.30;99.90
13721;DHT22;6932;51.438;5.470;2024-01-16T05:19:53;6.30;99.90
13721;DHT22;6932;51.438;5.470;2024-01-16T05:22:19;6.30;99.90
13721;DHT22;6932;51.438;5.470;2024-01-16T05:24:44;6.30;99.90
13721;DHT22;6932;51.438;5.470;2024-01-16T05:27:10;6.20;99.90
13721;DHT22;6932;51.438;5.470;2024-01-16T05:29:36;6.30;99.90
13721;DHT22;6932;51.438;5.470;2024-01-16T05:32:04;6.20;99.90
13721;DHT22;6932;51.438;5.470;2024-01-16T05:34:30;6.20;99.90
13721;DHT22;6932;51.438;5.470;2024-01-16T05:36:56;6.20;99.90
13721;DHT22;6932;51.438;5.470;2024-01-16T05:39:22;6.20;99.90
13721;DHT22;6932;51.438;5.470;2024-01-16T05:41:47;6.20;99.90
13721;DHT22;6932;51.438;5.470;2024-01-16T05:44:13;6.20;99.90
13721;DHT22;6932;51.438;5.470;2024-01-16T05:46:39;6.10;99.90
13721;DHT22;6932;51.438;5.470;2024-01-16T05:49:04;6.20;99.90
13721;DHT22;6932;51.438;5.470;2024-01-16T05:51:30;6.20;99.90
13721;DHT22;6932;51.438;5.470;2024-01-16T05:53:56;6.10;99.90
13721;DHT22;6932;51.438;5.470;2024-01-16T05:56:22;6.10;99.90
13721;DHT22;6932;51.438;5.470;2024-01-16T05:58:48;6.10;99.90
13721;DHT22;6932;51.438;5.470;2024-01-16T06:01:13;6.10;99.90
13721;DHT22;6932;51.438;5.470;2024-01-16T06:03:40;6.10;99.90
13721;DHT22;6932;51.438;5.470;2024-01-16T06:06:07;6.10;99.90
13721;DHT22;6932;51.438;5.470;2024-01-16T06:08:33;6.10;99.90
13721;DHT22;6932;51.438;5.470;2024-01-16T06:10:59;6.10;99.90
13721;DHT22;6932;51.438;5.470;2024-01-16T06:13:25;6.00;99.90
13721;DHT22;6932;51.438;5.470;2024-01-16T06:15:51;6.00;99.90
13721;DHT22;6932;51.438;5.470;2024-01-16T06:18:17;6.00;99.90
13721;DHT22;6932;51.438;5.470;2024-01-16T06:20:42;6.00;99.90
13721;DHT22;6932;51.438;5.470;2024-01-16T06:23:08;6.00;99.90
13721;DHT22;6932;51.438;5.470;2024-01-16T06:25:34;6.00;99.90
13721;DHT22;6932;51.438;5.470;2024-01-16T06:28:00;6.00;99.90
13721;DHT22;6932;51.438;5.470;2024-01-16T06:30:25;6.00;99.90
13721;DHT22;6932;51.438;5.470;2024-01-16T06:32:51;5.90;99.90
13721;DHT22;6932;51.438;5.470;2024-01-16T06:35:17;5.90;99.90
13721;DHT22;6932;51.438;5.470;2024-01-16T06:37:43;5.90;99.90
13721;DHT22;6932;51.438;5.470;2024-01-16T06:40:09;5.90;99.90
13721;DHT22;6932;51.438;5.470;2024-01-16T06:42:35;5.90;99.90
13721;DHT22;6932;51.438;5.470;2024-01-16T06:45:02;5.90;99.90
13721;DHT22;6932;51.438;5.470;2024-01-16T06:47:28;5.90;99.90
13721;DHT22;6932;51.438;5.470;2024-01-16T06:49:54;5.90;99.90
13721;DHT22;6932;51.438;5.470;2024-01-16T06:52:20;5.90;99.90
13721;DHT22;6932;51.438;5.470;2024-01-16T06:54:46;5.90;99.90
13721;DHT22;6932;51.438;5.470;2024-01-16T06:57:11;5.90;99.90
13721;DHT22;6932;51.438;5.470;2024-01-16T06:59:37;5.90;99.90
13721;DHT22;6932;51.438;5.470;2024-01-16T07:02:03;5.90;99.90
13721;DHT22;6932;51.438;5.470;2024-01-16T07:04:29;5.80;99.90
13721;DHT22;6932;51.438;5.470;2024-01-16T07:06:55;5.80;99.90
13721;DHT22;6932;51.438;5.470;2024-01-16T07:09:20;5.80;99.90
13721;DHT22;6932;51.438;5.470;2024-01-16T07:11:47;5.80;99.90
13721;DHT22;6932;51.438;5.470;2024-01-16T07:14:13;5.80;99.90
13721;DHT22;6932;51.438;5.470;2024-01-16T07:16:39;5.70;99.90
13721;DHT22;6932;51.438;5.470;2024-01-16T07:19:05;5.80;99.90
13721;DHT22;6932;51.438;5.470;2024-01-16T07:21:31;5.80;99.90
13721;DHT22;6932;51.438;5.470;2024-01-16T07:23:57;5.70;99.90
13721;DHT22;6932;51.438;5.470;2024-01-16T07:26:23;5.70;99.90
13721;DHT22;6932;51.438;5.470;2024-01-16T07:28:49;5.70;99.90
13721;DHT22;6932;51.438;5.470;2024-01-16T07:31:15;5.70;99.90
13721;DHT22;6932;51.438;5.470;2024-01-16T07:33:42;5.80;99.90
13721;DHT22;6932;51.438;5.470;2024-01-16T07:36:08;5.80;99.90
13721;DHT22;6932;51.438;5.470;2024-01-16T07:38:35;5.70;99.90
13721;DHT22;6932;51.438;5.470;2024-01-16T07:41:04;5.80;99.90
13721;DHT22;6932;51.438;5.470;2024-01-16T07:43:31;5.80;99.90
13721;DHT22;6932;51.438;5.470;2024-01-16T07:45:57;5.80;99.90
13721;DHT22;6932;51.438;5.470;2024-01-16T07:48:23;5.80;99.90
13721;DHT22;6932;51.438;5.470;2024-01-16T07:50:49;5.80;99.90
13721;DHT22;6932;51.438;5.470;2024-01-16T07:53:15;5.80;99.90
13721;DHT22;6932;51.438;5.470;2024-01-16T07:55:42;5.80;99.90
13721;DHT22;6932;51.438;5.470;2024-01-16T07:58:11;5.80;99.90
13721;DHT22;6932;51.438;5.470;2024-01-16T08:00:37;5.80;99.90
13721;DHT22;6932;51.438;5.470;2024-01-16T08:03:03;5.80;99.90
13721;DHT22;6932;51.438;5.470;2024-01-16T08:05:29;5.80;99.90
13721;DHT22;6932;51.438;5.470;2024-01-16T08:07:56;5.80;99.90
13721;DHT22;6932;51.438;5.470;2024-01-16T08:10:23;5.80;99.90
13721;DHT22;6932;51.438;5.470;2024-01-16T08:12:48;5.80;99.90
13721;DHT22;6932;51.438;5.470;2024-01-16T08:15:14;5.80;99.90
13721;DHT22;6932;51.438;5.470;2024-01-16T08:17:40;5.80;99.90
13721;DHT22;6932;51.438;5.470;2024-01-16T08:20:07;5.80;99.90
13721;DHT22;6932;51.438;5.470;2024-01-16T08:22:38;5.80;99.90
13721;DHT22;6932;51.438;5.470;2024-01-16T08:25:04;5.80;99.90
13721;DHT22;6932;51.438;5.470;2024-01-16T08:27:30;5.90;99.90
13721;DHT22;6932;51.438;5.470;2024-01-16T08:29:57;5.90;99.90
13721;DHT22;6932;51.438;5.470;2024-01-16T08:32:22;5.90;99.90
13721;DHT22;6932;51.438;5.470;2024-01-16T08:34:48;5.90;99.90
13721;DHT22;6932;51.438;5.470;2024-01-16T08:37:14;5.90;99.90
13721;DHT22;6932;51.438;5.470;2024-01-16T08:39:39;5.90;99.90
13721;DHT22;6932;51.438;5.470;2024-01-16T08:42:05;5.90;99.90
13721;DHT22;6932;51.438;5.470;2024-01-16T08:44:31;5.90;99.90
13721;DHT22;6932;51.438;5.470;2024-01-16T08:46:57;5.90;99.90
13721;DHT22;6932;51.438;5.470;2024-01-16T08:49:24;5.90;99.90
13721;DHT22;6932;51.438;5.470;2024-01-16T08:51:50;5.90;99.90
13721;DHT22;6932;51.438;5.470;2024-01-16T08:54:16;5.90;99.90
13721;DHT22;6932;51.438;5.470;2024-01-16T08:56:41;5.90;99.90
13721;DHT22;6932;51.438;5.470;2024-01-16T08:59:07;5.90;99.90
13721;DHT22;6932;51.438;5.470;2024-01-16T09:01:33;6.00;99.90
13721;DHT22;6932;51.438;5.470;2024-01-16T09:03:59;5.90;99.90
13721;DHT22;6932;51.438;5.470;2024-01-16T09:06:25;6.00;99.90
13721;DHT22;6932;51.438;5.470;2024-01-16T09:08:50;5.90;99.90
13721;DHT22;6932;51.438;5.470;2024-01-16T09:11:16;6.00;99.90
13721;DHT22;6932;51.438;5.470;2024-01-16T09:13:42;5.90;99.90
13721;DHT22;6932;51.438;5.470;2024-01-16T09:16:09;6.00;99.90
13721;DHT22;6932;51.438;5.470;2024-01-16T09:18:34;6.00;99.90
13721;DHT22;6932;51.438;5.470;2024-01-16T09:21:00;6.00;99.90
13721;DHT22;6932;51.438;5.470;2024-01-16T09:23:26;6.00;99.90
13721;DHT22;6932;51.438;5.470;2024-01-16T09:25:51;6.00;99.90
13721;DHT22;6932;51.438;5.470;2024-01-16T09:28:17;6.00;99.90
13721;DHT22;6932;51.438;5.470;2024-01-16T09:30:43;6.00;99.90
13721;DHT22;6932;51.438;5.470;2024-01-16T09:33:09;6.10;99.90
13721;DHT22;6932;51.438;5.470;2024-01-16T09:35:36;6.10;99.90
13721;DHT22;6932;51.438;5.470;2024-01-16T09:38:02;6.10;99.90
13721;DHT22;6932;51.438;5.470;2024-01-16T09:40:30;6.10;99.90
13721;DHT22;6932;51.438;5.470;2024-01-16T09:42:56;6.10;99.90
13721;DHT22;6932;51.438;5.470;2024-01-16T09:45:22;6.10;99.90
13721;DHT22;6932;51.438;5.470;2024-01-16T09:47:51;6.10;99.90
13721;DHT22;6932;51.438;5.470;2024-01-16T09:50:18;6.20;99.90
13721;DHT22;6932;51.438;5.470;2024-01-16T09:52:48;6.10;99.90
13721;DHT22;6932;51.438;5.470;2024-01-16T09:55:15;6.20;99.90
13721;DHT22;6932;51.438;5.470;2024-01-16T09:57:41;6.20;99.90
13721;DHT22;6932;51.438;5.470;2024-01-16T10:00:12;6.20;99.90
13721;DHT22;6932;51.438;5.470;2024-01-16T10:02:41;6.20;99.90
13721;DHT22;6932;51.438;5.470;2024-01-16T10:05:09;6.30;99.90
13721;DHT22;6932;51.438;5.470;2024-01-16T10:07:40;6.30;99.90
13721;DHT22;6932;51.438;5.470;2024-01-16T10:10:09;6.40;99.90
13721;DHT22;6932;51.438;5.470;2024-01-16T10:12:37;6.50;99.90
13721;DHT22;6932;51.438;5.470;2024-01-16T10:15:06;6.60;99.90
13721;DHT22;6932;51.438;5.470;2024-01-16T10:17:43;6.70;99.90
13721;DHT22;6932;51.438;5.470;2024-01-16T10:20:10;6.90;99.90
13721;DHT22;6932;51.438;5.470;2024-01-16T10:22:51;7.00;99.90
13721;DHT22;6932;51.438;5.470;2024-01-16T10:25:20;7.10;99.90
13721;DHT22;6932;51.438;5.470;2024-01-16T10:27:48;6.90;99.90
13721;DHT22;6932;51.438;5.470;2024-01-16T10:30:14;6.80;99.90
13721;DHT22;6932;51.438;5.470;2024-01-16T10:32:41;6.60;99.90
13721;DHT22;6932;51.438;5.470;2024-01-16T10:35:10;6.40;99.90
13721;DHT22;6932;51.438;5.470;2024-01-16T10:37:53;6.30;99.90
13721;DHT22;6932;51.438;5.470;2024-01-16T10:40:20;6.20;99.90
13721;DHT22;6932;51.438;5.470;2024-01-16T10:42:58;6.20;99.90
13721;DHT22;6932;51.438;5.470;2024-01-16T10:45:29;6.10;99.90
13721;DHT22;6932;51.438;5.470;2024-01-16T10:48:05;6.20;99.90
13721;DHT22;6932;51.438;5.470;2024-01-16T10:50:33;6.40;99.90
13721;DHT22;6932;51.438;5.470;2024-01-16T10:53:03;6.60;99.90
13721;DHT22;6932;51.438;5.470;2024-01-16T10:55:31;6.80;99.90
13721;DHT22;6932;51.438;5.470;2024-01-16T10:58:22;7.10;99.90
13721;DHT22;6932;51.438;5.470;2024-01-16T11:00:53;7.40;99.90
13721;DHT22;6932;51.438;5.470;2024-01-16T11:03:28;7.60;99.90
13721;DHT22;6932;51.438;5.470;2024-01-16T11:06:06;7.80;99.60
13721;DHT22;6932;51.438;5.470;2024-01-16T11:08:36;7.90;99.40
13721;DHT22;6932;51.438;5.470;2024-01-16T11:11:04;8.00;99.10
13721;DHT22;6932;51.438;5.470;2024-01-16T11:13:35;8.20;99.30
13721;DHT22;6932;51.438;5.470;2024-01-16T11:16:05;8.30;98.90
13721;DHT22;6932;51.438;5.470;2024-01-16T11:18:33;8.40;98.60
13721;DHT22;6932;51.438;5.470;2024-01-16T11:21:01;8.50;98.30
13721;DHT22;6932;51.438;5.470;2024-01-16T11:23:29;8.60;98.60
13721;DHT22;6932;51.438;5.470;2024-01-16T11:25:55;8.60;98.10
13721;DHT22;6932;51.438;5.470;2024-01-16T11:28:27;8.70;98.20
13721;DHT22;6932;51.438;5.470;2024-01-16T11:30:56;8.80;98.20
13721;DHT22;6932;51.438;5.470;2024-01-16T11:35:57;9.00;97.40
13721;DHT22;6932;51.438;5.470;2024-01-16T11:38:24;9.00;97.50
13721;DHT22;6932;51.438;5.470;2024-01-16T11:40:54;9.00;97.50
13721;DHT22;6932;51.438;5.470;2024-01-16T11:46:06;9.10;97.10
13721;DHT22;6932;51.438;5.470;2024-01-16T11:48:33;9.10;96.80
13721;DHT22;6932;51.438;5.470;2024-01-16T11:50:59;9.10;97.30
13721;DHT22;6932;51.438;5.470;2024-01-16T11:53:31;9.20;96.80
13721;DHT22;6932;51.438;5.470;2024-01-16T11:56:16;9.20;96.90
13721;DHT22;6932;51.438;5.470;2024-01-16T12:02:23;9.20;96.80
13721;DHT22;6932;51.438;5.470;2024-01-16T12:05:02;9.30;96.60
13721;DHT22;6932;51.438;5.470;2024-01-16T12:07:46;9.30;96.80
13721;DHT22;6932;51.438;5.470;2024-01-16T12:10:15;9.20;96.70
13721;DHT22;6932;51.438;5.470;2024-01-16T12:12:42;9.20;96.60
13721;DHT22;6932;51.438;5.470;2024-01-16T12:15:19;9.30;96.30
13721;DHT22;6932;51.438;5.470;2024-01-16T12:17:57;9.20;96.10
13721;DHT22;6932;51.438;5.470;2024-01-16T12:20:27;9.20;96.40
13721;DHT22;6932;51.438;5.470;2024-01-16T12:22:58;9.30;96.40
13721;DHT22;6932;51.438;5.470;2024-01-16T12:25:30;9.20;96.50
13721;DHT22;6932;51.438;5.470;2024-01-16T12:28:04;9.20;96.40
13721;DHT22;6932;51.438;5.470;2024-01-16T12:30:35;9.20;96.00
13721;DHT22;6932;51.438;5.470;2024-01-16T12:33:09;9.20;96.40
13721;DHT22;6932;51.438;5.470;2024-01-16T12:35:37;9.30;96.20
13721;DHT22;6932;51.438;5.470;2024-01-16T12:38:07;9.20;96.20
13721;DHT22;6932;51.438;5.470;2024-01-16T12:40:35;9.30;96.00
13721;DHT22;6932;51.438;5.470;2024-01-16T12:43:03;9.30;95.60
13721;DHT22;6932;51.438;5.470;2024-01-16T12:45:30;9.30;95.80
13721;DHT22;6932;51.438;5.470;2024-01-16T12:47:56;9.30;96.10
13721;DHT22;6932;51.438;5.470;2024-01-16T12:50:26;9.20;96.00
13721;DHT22;6932;51.438;5.470;2024-01-16T12:53:07;9.20;95.80
13721;DHT22;6932;51.438;5.470;2024-01-16T12:55:39;9.20;95.40
13721;DHT22;6932;51.438;5.470;2024-01-16T12:58:22;9.20;95.50
13721;DHT22;6932;51.438;5.470;2024-01-16T13:00:52;9.20;95.80
13721;DHT22;6932;51.438;5.470;2024-01-16T13:03:19;9.10;96.00
13721;DHT22;6932;51.438;5.470;2024-01-16T13:05:55;9.10;95.10
13721;DHT22;6932;51.438;5.470;2024-01-16T13:08:22;9.10;95.80
13721;DHT22;6932;51.438;5.470;2024-01-16T13:11:07;9.10;95.90
13721;DHT22;6932;51.438;5.470;2024-01-16T13:13:37;9.00;95.90
13721;DHT22;6932;51.438;5.470;2024-01-16T13:16:04;9.00;96.20
13721;DHT22;6932;51.438;5.470;2024-01-16T13:18:34;9.00;96.40
13721;DHT22;6932;51.438;5.470;2024-01-16T13:21:00;9.00;95.90
13721;DHT22;6932;51.438;5.470;2024-01-16T13:23:27;9.00;95.90
13721;DHT22;6932;51.438;5.470;2024-01-16T13:25:55;9.00;95.80
13721;DHT22;6932;51.438;5.470;2024-01-16T13:28:23;9.00;95.60
13721;DHT22;6932;51.438;5.470;2024-01-16T13:30:50;8.90;95.50
13721;DHT22;6932;51.438;5.470;2024-01-16T13:33:16;9.00;95.40
13721;DHT22;6932;51.438;5.470;2024-01-16T13:35:43;8.90;95.50
13721;DHT22;6932;51.438;5.470;2024-01-16T13:38:12;8.90;95.30
13721;DHT22;6932;51.438;5.470;2024-01-16T13:40:39;8.80;95.40
13721;DHT22;6932;51.438;5.470;2024-01-16T13:43:04;8.80;95.20
13721;DHT22;6932;51.438;5.470;2024-01-16T13:45:32;8.80;95.40
13721;DHT22;6932;51.438;5.470;2024-01-16T13:47:59;8.80;95.50
13721;DHT22;6932;51.438;5.470;2024-01-16T13:50:26;8.70;95.30
13721;DHT22;6932;51.438;5.470;2024-01-16T13:52:52;8.70;95.30
13721;DHT22;6932;51.438;5.470;2024-01-16T13:55:20;8.70;95.30
13721;DHT22;6932;51.438;5.470;2024-01-16T13:57:46;8.70;95.60
13721;DHT22;6932;51.438;5.470;2024-01-16T14:00:13;8.60;95.80
13721;DHT22;6932;51.438;5.470;2024-01-16T14:02:47;8.60;95.70
13721;DHT22;6932;51.438;5.470;2024-01-16T14:05:15;8.60;96.00
13721;DHT22;6932;51.438;5.470;2024-01-16T14:07:45;8.60;96.30
13721;DHT22;6932;51.438;5.470;2024-01-16T14:10:15;8.60;96.20
13721;DHT22;6932;51.438;5.470;2024-01-16T14:12:43;8.60;96.00
13721;DHT22;6932;51.438;5.470;2024-01-16T14:15:14;8.60;95.80
13721;DHT22;6932;51.438;5.470;2024-01-16T14:17:46;8.60;95.40
13721;DHT22;6932;51.438;5.470;2024-01-16T14:20:14;8.60;95.50
13721;DHT22;6932;51.438;5.470;2024-01-16T14:22:42;8.60;95.80
13721;DHT22;6932;51.438;5.470;2024-01-16T14:25:12;8.60;95.90
13721;DHT22;6932;51.438;5.470;2024-01-16T14:30:12;8.50;95.50
13721;DHT22;6932;51.438;5.470;2024-01-16T14:32:43;8.50;95.30
13721;DHT22;6932;51.438;5.470;2024-01-16T14:35:11;8.60;95.10
13721;DHT22;6932;51.438;5.470;2024-01-16T14:37:39;8.60;95.10
13721;DHT22;6932;51.438;5.470;2024-01-16T14:40:07;8.60;94.90
13721;DHT22;6932;51.438;5.470;2024-01-16T14:42:48;8.60;95.00
13721;DHT22;6932;51.438;5.470;2024-01-16T14:45:17;8.50;94.90
13721;DHT22;6932;51.438;5.470;2024-01-16T14:47:44;8.50;95.00
13721;DHT22;6932;51.438;5.470;2024-01-16T14:50:11;8.50;94.60
13721;DHT22;6932;51.438;5.470;2024-01-16T14:52:38;8.50;95.10
13721;DHT22;6932;51.438;5.470;2024-01-16T14:55:06;8.50;95.10
13721;DHT22;6932;51.438;5.470;2024-01-16T14:57:35;8.50;95.10
13721;DHT22;6932;51.438;5.470;2024-01-16T15:00:13;8.50;94.80
13721;DHT22;6932;51.438;5.470;2024-01-16T15:02:52;8.50;94.50
13721;DHT22;6932;51.438;5.470;2024-01-16T15:05:19;8.40;94.80
13721;DHT22;6932;51.438;5.470;2024-01-16T15:07:46;8.40;95.10
13721;DHT22;6932;51.438;5.470;2024-01-16T15:10:13;8.30;95.10
13721;DHT22;6932;51.438;5.470;2024-01-16T15:12:43;8.30;95.10
13721;DHT22;6932;51.438;5.470;2024-01-16T15:15:11;8.30;95.10
13721;DHT22;6932;51.438;5.470;2024-01-16T15:17:39;8.30;95.40
13721;DHT22;6932;51.438;5.470;2024-01-16T15:20:06;8.30;95.50
13721;DHT22;6932;51.438;5.470;2024-01-16T15:22:44;8.20;95.30
13721;DHT22;6932;51.438;5.470;2024-01-16T15:25:11;8.20;95.50
13721;DHT22;6932;51.438;5.470;2024-01-16T15:27:39;8.20;95.30
13721;DHT22;6932;51.438;5.470;2024-01-16T15:30:05;8.10;95.50
13721;DHT22;6932;51.438;5.470;2024-01-16T15:32:34;8.10;95.60
13721;DHT22;6932;51.438;5.470;2024-01-16T15:35:00;8.10;95.50
13721;DHT22;6932;51.438;5.470;2024-01-16T15:37:27;8.10;95.60
13721;DHT22;6932;51.438;5.470;2024-01-16T15:39:53;8.00;95.50
13721;DHT22;6932;51.438;5.470;2024-01-16T15:42:19;8.00;95.50
13721;DHT22;6932;51.438;5.470;2024-01-16T15:44:44;8.00;95.60
13721;DHT22;6932;51.438;5.470;2024-01-16T15:47:10;8.00;95.70
13721;DHT22;6932;51.438;5.470;2024-01-16T15:49:37;7.90;95.60
13721;DHT22;6932;51.438;5.470;2024-01-16T15:52:04;7.90;95.70
13721;DHT22;6932;51.438;5.470;2024-01-16T15:54:30;7.90;95.60
13721;DHT22;6932;51.438;5.470;2024-01-16T15:56:56;7.80;95.80
13721;DHT22;6932;51.438;5.470;2024-01-16T15:59:23;7.80;95.60
13721;DHT22;6932;51.438;5.470;2024-01-16T16:01:49;7.80;95.60
13721;DHT22;6932;51.438;5.470;2024-01-16T16:04:16;7.70;95.60
13721;DHT22;6932;51.438;5.470;2024-01-16T16:06:43;7.70;95.70
13721;DHT22;6932;51.438;5.470;2024-01-16T16:09:09;7.70;95.70
13721;DHT22;6932;51.438;5.470;2024-01-16T16:11:40;7.60;95.70
13721;DHT22;6932;51.438;5.470;2024-01-16T16:14:11;7.60;95.60
13721;DHT22;6932;51.438;5.470;2024-01-16T16:16:39;7.60;95.70